sensor_id;sensor_type;location;lat;lon;timestamp;temperature;humidity
36206;DHT22;22242;48.796;9.930;2023-07-20T00:02:04;18.50;99.90
36206;DHT22;22242;48.796;9.930;2023-07-20T00:04:33;18.50;99.90
36206;DHT22;22242;48.796;9.930;2023-07-20T00:07:00;18.50;99.90
36206;DHT22;22242;48.796;9.930;2023-07-20T00:09:27;18.60;99.90
36206;DHT22;22242;48.796;9.930;2023-07-20T00:11:56;18.70;99.90
36206;DHT22;22242;48.796;9.930;2023-07-20T00:14:25;18.90;99.90
36206;DHT22;22242;48.796;9.930;2023-07-20T00:16:54;18.90;99.90
36206;DHT22;22242;48.796;9.930;2023-07-20T00:19:22;18.90;99.90
36206;DHT22;22242;48.796;9.930;2023-07-20T00:21:50;18.90;99.90
36206;DHT22;22242;48.796;9.930;2023-07-20T00:24:17;18.80;99.90
36206;DHT22;22242;48.796;9.930;2023-07-20T00:26:44;18.90;99.90
36206;DHT22;22242;48.796;9.930;2023-07-20T00:29:13;18.90;99.90
36206;DHT22;22242;48.796;9.930;2023-07-20T00:31:40;18.90;99.90
36206;DHT22;22242;48.796;9.930;2023-07-20T00:34:09;18.80;99.90
36206;DHT22;22242;48.796;9.930;2023-07-20T00:36:36;18.80;99.90
36206;DHT22;22242;48.796;9.930;2023-07-20T00:39:03;18.80;99.90
36206;DHT22;22242;48.796;9.930;2023-07-20T00:41:30;18.80;99.90
36206;DHT22;22242;48.796;9.930;2023-07-20T00:43:58;18.80;99.90
36206;DHT22;22242;48.796;9.930;2023-07-20T00:46:28;18.70;99.90
36206;DHT22;22242;48.796;9.930;2023-07-20T00:48:55;18.80;99.90
36206;DHT22;22242;48.796;9.930;2023-07-20T00:51:23;18.70;99.90
36206;DHT22;22242;48.796;9.930;2023-07-20T00:53:51;18.60;99.90
36206;DHT22;22242;48.796;9.930;2023-07-20T00:56:18;18.50;99.90
36206;DHT22;22242;48.796;9.930;2023-07-20T00:58:46;18.50;99.90
36206;DHT22;22242;48.796;9.930;2023-07-20T01:01:13;18.50;99.90
36206;DHT22;22242;48.796;9.930;2023-07-20T01:03:41;18.50;99.90
36206;DHT22;22242;48.796;9.930;2023-07-20T01:06:18;18.50;99.90
36206;DHT22;22242;48.796;9.930;2023-07-20T01:08:57;18.60;99.90
36206;DHT22;22242;48.796;9.930;2023-07-20T01:11:36;18.50;99.90
36206;DHT22;22242;48.796;9.930;2023-07-20T01:14:05;18.40;99.90
36206;DHT22;22242;48.796;9.930;2023-07-20T01:16:33;18.50;99.90
36206;DHT22;22242;48.796;9.930;2023-07-20T01:19:02;18.50;99.90
36206;DHT22;22242;48.796;9.930;2023-07-20T01:21:34;18.50;99.90
36206;DHT22;22242;48.796;9.930;2023-07-20T01:27:36;18.40;99.90
36206;DHT22;22242;48.796;9.930;2023-07-20T01:30:52;18.30;99.90
36206;DHT22;22242;48.796;9.930;2023-07-20T01:33:24;18.20;99.90
36206;DHT22;22242;48.796;9.930;2023-07-20T01:35:55;18.20;99.90
36206;DHT22;22242;48.796;9.930;2023-07-20T01:38:24;18.10;99.90
36206;DHT22;22242;48.796;9.930;2023-07-20T01:40:51;18.10;99.90
36206;DHT22;22242;48.796;9.930;2023-07-20T01:43:20;18.10;99.90
36206;DHT22;22242;48.796;9.930;2023-07-20T01:45:47;17.90;99.90
36206;DHT22;22242;48.796;9.930;2023-07-20T01:48:14;17.90;99.90
36206;DHT22;22242;48.796;9.930;2023-07-20T01:50:43;17.80;99.90
36206;DHT22;22242;48.796;9.930;2023-07-20T01:53:10;17.70;99.90
36206;DHT22;22242;48.796;9.930;2023-07-20T01:55:37;17.60;99.90
36206;DHT22;22242;48.796;9.930;2023-07-20T01:58:04;17.50;99.90
36206;DHT22;22242;48.796;9.930;2023-07-20T02:00:32;17.50;99.90
36206;DHT22;22242;48.796;9.930;2023-07-20T02:02:59;17.50;99.90
36206;DHT22;22242;48.796;9.930;2023-07-20T02:05:26;17.40;99.90
36206;DHT22;22242;48.796;9.930;2023-07-20T02:07:55;17.30;99.90
36206;DHT22;22242;48.796;9.930;2023-07-20T02:10:22;17.40;99.90
36206;DHT22;22242;48.796;9.930;2023-07-20T02:12:49;17.40;99.90
36206;DHT22;22242;48.796;9.930;2023-07-20T02:15:17;17.40;99.90
36206;DHT22;22242;48.796;9.930;2023-07-20T02:17:45;17.40;99.90
36206;DHT22;22242;48.796;9.930;2023-07-20T02:20:12;17.20;99.90
36206;DHT22;22242;48.796;9.930;2023-07-20T02:22:40;17.10;99.90
36206;DHT22;22242;48.796;9.930;2023-07-20T02:25:09;17.10;99.90
36206;DHT22;22242;48.796;9.930;2023-07-20T02:27:37;17.10;99.90
36206;DHT22;22242;48.796;9.930;2023-07-20T02:30:05;17.10;99.90
36206;DHT22;22242;48.796;9.930;2023-07-20T02:32:34;17.10;99.90
36206;DHT22;22242;48.796;9.930;2023-07-20T02:35:01;17.00;99.90
36206;DHT22;22242;48.796;9.930;2023-07-20T02:37:29;17.10;99.90
36206;DHT22;22242;48.796;9.930;2023-07-20T02:39:56;17.00;99.90
36206;DHT22;22242;48.796;9.930;2023-07-20T02:42:25;16.80;99.90
36206;DHT22;22242;48.796;9.930;2023-07-20T02:44:52;16.80;99.90
36206;DHT22;22242;48.796;9.930;2023-07-20T02:47:19;16.90;99.90
36206;DHT22;22242;48.796;9.930;2023-07-20T02:49:46;16.90;99.90
36206;DHT22;22242;48.796;9.930;2023-07-20T02:52:13;16.90;99.90
36206;DHT22;22242;48.796;9.930;2023-07-20T02:54:41;16.80;99.90
36206;DHT22;22242;48.796;9.930;2023-07-20T02:57:08;16.60;99.90
36206;DHT22;22242;48.796;9.930;2023-07-20T02:59:36;16.60;99.90
36206;DHT22;22242;48.796;9.930;2023-07-20T03:02:04;16.60;99.90
36206;DHT22;22242;48.796;9.930;2023-07-20T03:04:31;16.70;99.90
36206;DHT22;22242;48.796;9.930;2023-07-20T03:06:58;16.50;99.90
36206;DHT22;22242;48.796;9.930;2023-07-20T03:09:25;16.50;99.90
36206;DHT22;22242;48.796;9.930;2023-07-20T03:11:53;16.50;99.90
36206;DHT22;22242;48.796;9.930;2023-07-20T03:14:20;16.30;99.90
36206;DHT22;22242;48.796;9.930;2023-07-20T03:16:48;16.30;99.90
36206;DHT22;22242;48.796;9.930;2023-07-20T03:19:16;16.40;99.90
36206;DHT22;22242;48.796;9.930;2023-07-20T03:21:43;16.30;99.90
36206;DHT22;22242;48.796;9.930;2023-07-20T03:24:10;16.20;99.90
36206;DHT22;22242;48.796;9.930;2023-07-20T03:26:39;16.10;99.90
36206;DHT22;22242;48.796;9.930;2023-07-20T03:29:06;16.10;99.90
36206;DHT22;22242;48.796;9.930;2023-07-20T03:31:34;16.10;99.90
36206;DHT22;22242;48.796;9.930;2023-07-20T03:34:03;16.10;99.90
36206;DHT22;22242;48.796;9.930;2023-07-20T03:36:31;16.10;99.90
36206;DHT22;22242;48.796;9.930;2023-07-20T03:38:58;16.10;99.90
36206;DHT22;22242;48.796;9.930;2023-07-20T03:41:25;16.00;99.90
36206;DHT22;22242;48.796;9.930;2023-07-20T03:43:52;16.10;99.90
36206;DHT22;22242;48.796;9.930;2023-07-20T03:46:20;16.10;99.90
36206;DHT22;22242;48.796;9.930;2023-07-20T03:48:47;16.20;99.90
36206;DHT22;22242;48.796;9.930;2023-07-20T03:51:15;16.10;99.90
36206;DHT22;22242;48.796;9.930;2023-07-20T03:53:43;16.10;99.90
36206;DHT22;22242;48.796;9.930;2023-07-20T03:56:10;16.20;99.90
36206;DHT22;22242;48.796;9.930;2023-07-20T03:58:37;16.20;99.90
36206;DHT22;22242;48.796;9.930;2023-07-20T04:01:04;16.30;99.90
36206;DHT22;22242;48.796;9.930;2023-07-20T04:03:33;16.20;99.90
36206;DHT22;22242;48.796;9.930;2023-07-20T04:06:00;16.20;99.90
36206;DHT22;22242;48.796;9.930;2023-07-20T04:08:28;16.20;99.90
36206;DHT22;22242;48.796;9.930;2023-07-20T04:10:55;16.30;99.90
36206;DHT22;22242;48.796;9.930;2023-07-20T04:13:23;16.20;99.90
36206;DHT22;22242;48.796;9.930;2023-07-20T04:15:50;16.20;99.90
36206;DHT22;22242;48.796;9.930;2023-07-20T04:18:17;16.10;99.90
36206;DHT22;22242;48.796;9.930;2023-07-20T04:20:44;16.10;99.90
36206;DHT22;22242;48.796;9.930;2023-07-20T04:23:11;16.20;99.90
36206;DHT22;22242;48.796;9.930;2023-07-20T04:25:41;16.20;99.90
36206;DHT22;22242;48.796;9.930;2023-07-20T04:28:11;16.30;99.90
36206;DHT22;22242;48.796;9.930;2023-07-20T04:30:43;16.30;99.90
36206;DHT22;22242;48.796;9.930;2023-07-20T04:33:11;16.40;99.90
36206;DHT22;22242;48.796;9.930;2023-07-20T04:35:48;16.60;99.90
36206;DHT22;22242;48.796;9.930;2023-07-20T04:38:35;16.50;99.90
36206;DHT22;22242;48.796;9.930;2023-07-20T04:41:17;16.50;99.90
36206;DHT22;22242;48.796;9.930;2023-07-20T04:43:47;16.50;99.90
36206;DHT22;22242;48.796;9.930;2023-07-20T04:46:18;16.70;99.90
36206;DHT22;22242;48.796;9.930;2023-07-20T04:48:47;16.80;99.90
36206;DHT22;22242;48.796;9.930;2023-07-20T04:51:15;16.80;99.90
36206;DHT22;22242;48.796;9.930;2023-07-20T04:53:43;16.90;99.90
36206;DHT22;22242;48.796;9.930;2023-07-20T04:56:10;16.90;99.90
36206;DHT22;22242;48.796;9.930;2023-07-20T04:58:39;16.90;99.90
36206;DHT22;22242;48.796;9.930;2023-07-20T05:01:07;16.90;99.90
36206;DHT22;22242;48.796;9.930;2023-07-20T05:03:35;17.00;99.90
36206;DHT22;22242;48.796;9.930;2023-07-20T05:06:02;17.10;99.90
36206;DHT22;22242;48.796;9.930;2023-07-20T05:08:30;17.20;99.90
36206;DHT22;22242;48.796;9.930;2023-07-20T05:10:59;17.40;99.90
36206;DHT22;22242;48.796;9.930;2023-07-20T05:13:26;17.50;99.90
36206;DHT22;22242;48.796;9.930;2023-07-20T05:15:54;17.90;99.90
36206;DHT22;22242;48.796;9.930;2023-07-20T05:18:22;17.90;99.90
36206;DHT22;22242;48.796;9.930;2023-07-20T05:20:50;17.80;99.90
36206;DHT22;22242;48.796;9.930;2023-07-20T05:23:18;17.80;99.90
36206;DHT22;22242;48.796;9.930;2023-07-20T05:25:46;17.70;99.90
36206;DHT22;22242;48.796;9.930;2023-07-20T05:28:13;17.90;99.90
36206;DHT22;22242;48.796;9.930;2023-07-20T05:30:40;17.90;99.90
36206;DHT22;22242;48.796;9.930;2023-07-20T05:33:08;17.90;99.90
36206;DHT22;22242;48.796;9.930;2023-07-20T05:35:36;18.40;99.90
36206;DHT22;22242;48.796;9.930;2023-07-20T05:38:03;18.60;99.90
36206;DHT22;22242;48.796;9.930;2023-07-20T05:40:32;18.70;99.90
36206;DHT22;22242;48.796;9.930;2023-07-20T05:42:59;18.70;99.90
36206;DHT22;22242;48.796;9.930;2023-07-20T05:45:27;18.60;99.90
36206;DHT22;22242;48.796;9.930;2023-07-20T05:47:54;18.50;99.90
36206;DHT22;22242;48.796;9.930;2023-07-20T05:50:22;18.30;99.90
36206;DHT22;22242;48.796;9.930;2023-07-20T05:52:52;18.40;99.90
36206;DHT22;22242;48.796;9.930;2023-07-20T05:55:19;18.40;99.90
36206;DHT22;22242;48.796;9.930;2023-07-20T05:57:47;18.50;99.90
36206;DHT22;22242;48.796;9.930;2023-07-20T06:00:16;18.50;99.90
36206;DHT22;22242;48.796;9.930;2023-07-20T06:02:45;18.50;99.90
36206;DHT22;22242;48.796;9.930;2023-07-20T06:05:14;18.70;99.90
36206;DHT22;22242;48.796;9.930;2023-07-20T06:07:42;18.60;99.90
36206;DHT22;22242;48.796;9.930;2023-07-20T06:10:09;18.80;99.90
36206;DHT22;22242;48.796;9.930;2023-07-20T06:12:36;18.90;99.90
36206;DHT22;22242;48.796;9.930;2023-07-20T06:15:04;19.00;99.90
36206;DHT22;22242;48.796;9.930;2023-07-20T06:17:31;19.00;99.90
36206;DHT22;22242;48.796;9.930;2023-07-20T06:19:58;19.00;99.90
36206;DHT22;22242;48.796;9.930;2023-07-20T06:22:25;19.20;99.90
36206;DHT22;22242;48.796;9.930;2023-07-20T06:24:54;19.20;99.90
36206;DHT22;22242;48.796;9.930;2023-07-20T06:27:21;19.30;99.90
36206;DHT22;22242;48.796;9.930;2023-07-20T06:29:48;19.60;99.90
36206;DHT22;22242;48.796;9.930;2023-07-20T06:32:15;20.00;99.90
36206;DHT22;22242;48.796;9.930;2023-07-20T06:34:42;20.30;99.90
36206;DHT22;22242;48.796;9.930;2023-07-20T06:37:09;20.60;99.90
36206;DHT22;22242;48.796;9.930;2023-07-20T06:39:36;20.90;99.90
36206;DHT22;22242;48.796;9.930;2023-07-20T06:42:06;21.50;99.30
36206;DHT22;22242;48.796;9.930;2023-07-20T06:44:33;21.50;99.90
36206;DHT22;22242;48.796;9.930;2023-07-20T06:47:00;21.90;97.70
36206;DHT22;22242;48.796;9.930;2023-07-20T06:49:28;22.50;96.80
36206;DHT22;22242;48.796;9.930;2023-07-20T06:51:55;22.50;95.90
36206;DHT22;22242;48.796;9.930;2023-07-20T06:54:22;22.30;96.10
36206;DHT22;22242;48.796;9.930;2023-07-20T06:56:50;23.20;94.20
36206;DHT22;22242;48.796;9.930;2023-07-20T06:59:18;22.70;94.50
36206;DHT22;22242;48.796;9.930;2023-07-20T07:01:47;23.10;94.90
36206;DHT22;22242;48.796;9.930;2023-07-20T07:04:14;23.70;93.90
36206;DHT22;22242;48.796;9.930;2023-07-20T07:06:41;23.70;93.10
36206;DHT22;22242;48.796;9.930;2023-07-20T07:09:09;22.80;93.00
36206;DHT22;22242;48.796;9.930;2023-07-20T07:11:36;22.00;94.80
36206;DHT22;22242;48.796;9.930;2023-07-20T07:14:03;22.50;95.60
36206;DHT22;22242;48.796;9.930;2023-07-20T07:16:32;23.60;93.70
36206;DHT22;22242;48.796;9.930;2023-07-20T07:18:59;24.30;92.20
36206;DHT22;22242;48.796;9.930;2023-07-20T07:21:26;24.00;92.00
36206;DHT22;22242;48.796;9.930;2023-07-20T07:23:53;24.30;91.80
36206;DHT22;22242;48.796;9.930;2023-07-20T07:26:23;25.10;88.40
36206;DHT22;22242;48.796;9.930;2023-07-20T07:28:50;25.20;89.50
36206;DHT22;22242;48.796;9.930;2023-07-20T07:31:17;24.20;90.00
36206;DHT22;22242;48.796;9.930;2023-07-20T07:33:46;23.80;91.90
36206;DHT22;22242;48.796;9.930;2023-07-20T07:36:13;25.30;87.10
36206;DHT22;22242;48.796;9.930;2023-07-20T07:38:40;24.40;90.00
36206;DHT22;22242;48.796;9.930;2023-07-20T07:41:07;23.10;91.50
36206;DHT22;22242;48.796;9.930;2023-07-20T07:43:34;23.00;91.50
36206;DHT22;22242;48.796;9.930;2023-07-20T07:46:02;22.70;91.30
36206;DHT22;22242;48.796;9.930;2023-07-20T07:48:29;24.00;90.60
36206;DHT22;22242;48.796;9.930;2023-07-20T07:50:58;24.90;85.20
36206;DHT22;22242;48.796;9.930;2023-07-20T07:53:25;25.50;84.10
36206;DHT22;22242;48.796;9.930;2023-07-20T07:55:52;25.90;82.00
36206;DHT22;22242;48.796;9.930;2023-07-20T07:58:20;27.10;77.90
36206;DHT22;22242;48.796;9.930;2023-07-20T08:00:47;27.00;76.10
36206;DHT22;22242;48.796;9.930;2023-07-20T08:03:14;27.00;75.00
36206;DHT22;22242;48.796;9.930;2023-07-20T08:05:41;27.50;72.70
36206;DHT22;22242;48.796;9.930;2023-07-20T08:08:10;27.80;70.40
36206;DHT22;22242;48.796;9.930;2023-07-20T08:10:37;24.90;77.70
36206;DHT22;22242;48.796;9.930;2023-07-20T08:13:04;25.80;79.50
36206;DHT22;22242;48.796;9.930;2023-07-20T08:15:31;27.10;73.70
36206;DHT22;22242;48.796;9.930;2023-07-20T08:17:59;26.50;73.90
36206;DHT22;22242;48.796;9.930;2023-07-20T08:20:26;27.30;73.40
36206;DHT22;22242;48.796;9.930;2023-07-20T08:22:53;28.10;68.80
36206;DHT22;22242;48.796;9.930;2023-07-20T08:25:22;28.40;68.90
36206;DHT22;22242;48.796;9.930;2023-07-20T08:27:49;29.10;65.50
36206;DHT22;22242;48.796;9.930;2023-07-20T08:30:17;26.40;72.10
36206;DHT22;22242;48.796;9.930;2023-07-20T08:32:44;25.40;75.60
36206;DHT22;22242;48.796;9.930;2023-07-20T08:35:11;24.30;81.10
36206;DHT22;22242;48.796;9.930;2023-07-20T08:37:38;25.60;77.60
36206;DHT22;22242;48.796;9.930;2023-07-20T08:40:06;23.40;82.00
36206;DHT22;22242;48.796;9.930;2023-07-20T08:42:37;23.60;86.20
36206;DHT22;22242;48.796;9.930;2023-07-20T08:45:06;25.10;80.40
36206;DHT22;22242;48.796;9.930;2023-07-20T08:47:35;26.30;77.80
36206;DHT22;22242;48.796;9.930;2023-07-20T08:50:05;26.90;74.90
36206;DHT22;22242;48.796;9.930;2023-07-20T08:52:35;26.30;72.50
36206;DHT22;22242;48.796;9.930;2023-07-20T08:55:02;27.50;72.70
36206;DHT22;22242;48.796;9.930;2023-07-20T08:57:32;28.20;68.20
36206;DHT22;22242;48.796;9.930;2023-07-20T09:00:01;28.40;66.00
36206;DHT22;22242;48.796;9.930;2023-07-20T09:02:35;28.90;66.10
36206;DHT22;22242;48.796;9.930;2023-07-20T09:05:06;29.80;62.00
36206;DHT22;22242;48.796;9.930;2023-07-20T09:07:35;27.60;63.80
36206;DHT22;22242;48.796;9.930;2023-07-20T09:10:03;26.30;67.70
36206;DHT22;22242;48.796;9.930;2023-07-20T09:12:35;24.40;72.80
36206;DHT22;22242;48.796;9.930;2023-07-20T09:15:04;24.60;76.10
36206;DHT22;22242;48.796;9.930;2023-07-20T09:17:31;26.70;68.80
36206;DHT22;22242;48.796;9.930;2023-07-20T09:19:59;26.00;70.20
36206;DHT22;22242;48.796;9.930;2023-07-20T09:22:31;26.60;71.90
36206;DHT22;22242;48.796;9.930;2023-07-20T09:24:58;25.80;71.60
36206;DHT22;22242;48.796;9.930;2023-07-20T09:27:34;25.80;70.40
36206;DHT22;22242;48.796;9.930;2023-07-20T09:30:05;25.40;72.10
36206;DHT22;22242;48.796;9.930;2023-07-20T09:32:38;25.30;74.40
36206;DHT22;22242;48.796;9.930;2023-07-20T09:35:05;26.70;72.50
36206;DHT22;22242;48.796;9.930;2023-07-20T09:37:33;27.70;67.20
36206;DHT22;22242;48.796;9.930;2023-07-20T09:40:00;28.90;65.30
36206;DHT22;22242;48.796;9.930;2023-07-20T09:42:28;28.20;66.70
36206;DHT22;22242;48.796;9.930;2023-07-20T09:44:56;28.50;64.70
36206;DHT22;22242;48.796;9.930;2023-07-20T09:47:25;28.30;64.50
36206;DHT22;22242;48.796;9.930;2023-07-20T09:49:58;29.00;65.60
36206;DHT22;22242;48.796;9.930;2023-07-20T09:52:26;28.80;61.80
36206;DHT22;22242;48.796;9.930;2023-07-20T09:54:54;29.30;62.10
36206;DHT22;22242;48.796;9.930;2023-07-20T09:57:22;29.20;61.30
36206;DHT22;22242;48.796;9.930;2023-07-20T09:59:49;28.20;62.90
36206;DHT22;22242;48.796;9.930;2023-07-20T10:02:20;27.90;64.20
36206;DHT22;22242;48.796;9.930;2023-07-20T10:04:52;28.90;61.70
36206;DHT22;22242;48.796;9.930;2023-07-20T10:07:22;27.00;64.30
36206;DHT22;22242;48.796;9.930;2023-07-20T10:09:51;26.00;67.60
36206;DHT22;22242;48.796;9.930;2023-07-20T10:12:21;25.10;70.40
36206;DHT22;22242;48.796;9.930;2023-07-20T10:14:54;24.70;73.30
36206;DHT22;22242;48.796;9.930;2023-07-20T10:17:26;25.20;71.80
36206;DHT22;22242;48.796;9.930;2023-07-20T10:19:57;25.60;72.30
36206;DHT22;22242;48.796;9.930;2023-07-20T10:22:32;26.20;71.70
36206;DHT22;22242;48.796;9.930;2023-07-20T10:25:02;26.50;72.80
36206;DHT22;22242;48.796;9.930;2023-07-20T10:27:30;26.50;71.20
36206;DHT22;22242;48.796;9.930;2023-07-20T10:29:58;26.10;71.00
36206;DHT22;22242;48.796;9.930;2023-07-20T10:32:28;26.20;70.00
36206;DHT22;22242;48.796;9.930;2023-07-20T10:34:57;27.20;68.80
36206;DHT22;22242;48.796;9.930;2023-07-20T10:37:46;28.20;65.80
36206;DHT22;22242;48.796;9.930;2023-07-20T10:40:32;27.80;62.00
36206;DHT22;22242;48.796;9.930;2023-07-20T10:43:02;27.60;62.00
36206;DHT22;22242;48.796;9.930;2023-07-20T10:45:42;27.00;67.70
36206;DHT22;22242;48.796;9.930;2023-07-20T10:48:17;27.20;67.00
36206;DHT22;22242;48.796;9.930;2023-07-20T10:51:10;27.20;65.00
36206;DHT22;22242;48.796;9.930;2023-07-20T10:53:38;27.70;63.30
36206;DHT22;22242;48.796;9.930;2023-07-20T10:56:11;28.40;60.40
36206;DHT22;22242;48.796;9.930;2023-07-20T10:58:39;29.50;59.30
36206;DHT22;22242;48.796;9.930;2023-07-20T11:01:08;28.70;57.50
36206;DHT22;22242;48.796;9.930;2023-07-20T11:03:38;28.90;56.40
36206;DHT22;22242;48.796;9.930;2023-07-20T11:06:32;29.00;55.00
36206;DHT22;22242;48.796;9.930;2023-07-20T11:09:07;27.90;56.40
36206;DHT22;22242;48.796;9.930;2023-07-20T11:11:37;28.40;56.90
36206;DHT22;22242;48.796;9.930;2023-07-20T11:14:07;28.70;58.00
36206;DHT22;22242;48.796;9.930;2023-07-20T11:16:39;28.50;56.80
36206;DHT22;22242;48.796;9.930;2023-07-20T11:19:14;28.50;55.80
36206;DHT22;22242;48.796;9.930;2023-07-20T11:21:44;26.80;61.60
36206;DHT22;22242;48.796;9.930;2023-07-20T11:24:11;26.20;65.10
36206;DHT22;22242;48.796;9.930;2023-07-20T11:26:43;25.70;64.50
36206;DHT22;22242;48.796;9.930;2023-07-20T11:29:11;25.60;66.40
36206;DHT22;22242;48.796;9.930;2023-07-20T11:31:39;25.70;66.40
36206;DHT22;22242;48.796;9.930;2023-07-20T11:34:07;25.80;66.40
36206;DHT22;22242;48.796;9.930;2023-07-20T11:36:34;26.20;66.20
36206;DHT22;22242;48.796;9.930;2023-07-20T11:39:03;26.20;65.20
36206;DHT22;22242;48.796;9.930;2023-07-20T11:41:31;26.10;65.00
36206;DHT22;22242;48.796;9.930;2023-07-20T11:43:58;26.50;65.50
36206;DHT22;22242;48.796;9.930;2023-07-20T11:46:25;26.80;64.50
36206;DHT22;22242;48.796;9.930;2023-07-20T11:48:57;27.10;59.40
36206;DHT22;22242;48.796;9.930;2023-07-20T11:51:26;26.90;60.20
36206;DHT22;22242;48.796;9.930;2023-07-20T11:53:54;26.10;62.60
36206;DHT22;22242;48.796;9.930;2023-07-20T11:56:24;25.60;63.30
36206;DHT22;22242;48.796;9.930;2023-07-20T11:58:55;25.90;63.60
36206;DHT22;22242;48.796;9.930;2023-07-20T12:01:25;25.80;62.70
36206;DHT22;22242;48.796;9.930;2023-07-20T12:03:55;26.10;61.40
36206;DHT22;22242;48.796;9.930;2023-07-20T12:06:23;26.20;63.20
36206;DHT22;22242;48.796;9.930;2023-07-20T12:08:56;25.90;62.40
36206;DHT22;22242;48.796;9.930;2023-07-20T12:11:35;25.20;65.00
36206;DHT22;22242;48.796;9.930;2023-07-20T12:14:03;25.30;68.00
36206;DHT22;22242;48.796;9.930;2023-07-20T12:16:31;26.00;65.20
36206;DHT22;22242;48.796;9.930;2023-07-20T12:19:02;25.30;65.10
36206;DHT22;22242;48.796;9.930;2023-07-20T12:21:30;25.20;64.70
36206;DHT22;22242;48.796;9.930;2023-07-20T12:23:58;25.10;63.40
36206;DHT22;22242;48.796;9.930;2023-07-20T12:26:25;26.30;65.30
36206;DHT22;22242;48.796;9.930;2023-07-20T12:28:54;26.10;62.50
36206;DHT22;22242;48.796;9.930;2023-07-20T12:31:22;26.30;61.60
36206;DHT22;22242;48.796;9.930;2023-07-20T12:33:50;27.00;58.80
36206;DHT22;22242;48.796;9.930;2023-07-20T12:36:18;26.60;59.20
36206;DHT22;22242;48.796;9.930;2023-07-20T12:38:45;26.10;60.70
36206;DHT22;22242;48.796;9.930;2023-07-20T12:41:13;25.80;61.80
36206;DHT22;22242;48.796;9.930;2023-07-20T12:43:40;25.80;60.40
36206;DHT22;22242;48.796;9.930;2023-07-20T12:46:10;25.90;60.20
36206;DHT22;22242;48.796;9.930;2023-07-20T12:48:39;25.80;61.60
36206;DHT22;22242;48.796;9.930;2023-07-20T12:51:08;25.90;60.30
36206;DHT22;22242;48.796;9.930;2023-07-20T12:53:35;26.00;59.50
36206;DHT22;22242;48.796;9.930;2023-07-20T12:56:03;25.90;59.20
36206;DHT22;22242;48.796;9.930;2023-07-20T12:58:30;25.60;59.10
36206;DHT22;22242;48.796;9.930;2023-07-20T13:00:57;25.60;60.90
36206;DHT22;22242;48.796;9.930;2023-07-20T13:03:26;26.10;60.20
36206;DHT22;22242;48.796;9.930;2023-07-20T13:05:53;26.30;62.00
36206;DHT22;22242;48.796;9.930;2023-07-20T13:08:20;26.70;60.90
36206;DHT22;22242;48.796;9.930;2023-07-20T13:10:51;26.60;58.20
36206;DHT22;22242;48.796;9.930;2023-07-20T13:13:18;25.70;58.00
36206;DHT22;22242;48.796;9.930;2023-07-20T13:15:46;26.00;58.70
36206;DHT22;22242;48.796;9.930;2023-07-20T13:18:13;25.90;57.40
36206;DHT22;22242;48.796;9.930;2023-07-20T13:20:42;25.60;59.50
36206;DHT22;22242;48.796;9.930;2023-07-20T13:23:09;25.10;59.40
36206;DHT22;22242;48.796;9.930;2023-07-20T13:25:36;24.70;59.60
36206;DHT22;22242;48.796;9.930;2023-07-20T13:28:04;24.50;60.90
36206;DHT22;22242;48.796;9.930;2023-07-20T13:30:31;24.70;57.70
36206;DHT22;22242;48.796;9.930;2023-07-20T13:32:59;25.30;58.20
36206;DHT22;22242;48.796;9.930;2023-07-20T13:35:26;25.50;59.40
36206;DHT22;22242;48.796;9.930;2023-07-20T13:37:54;25.80;58.70
36206;DHT22;22242;48.796;9.930;2023-07-20T13:40:22;26.10;60.30
36206;DHT22;22242;48.796;9.930;2023-07-20T13:42:50;25.90;59.30
36206;DHT22;22242;48.796;9.930;2023-07-20T13:45:17;25.90;58.10
36206;DHT22;22242;48.796;9.930;2023-07-20T13:47:44;25.50;56.90
36206;DHT22;22242;48.796;9.930;2023-07-20T13:50:11;24.90;57.50
36206;DHT22;22242;48.796;9.930;2023-07-20T13:52:38;24.40;57.90
36206;DHT22;22242;48.796;9.930;2023-07-20T13:55:08;24.20;60.90
36206;DHT22;22242;48.796;9.930;2023-07-20T13:57:35;23.80;60.50
36206;DHT22;22242;48.796;9.930;2023-07-20T14:00:03;24.00;61.90
36206;DHT22;22242;48.796;9.930;2023-07-20T14:02:37;24.60;60.70
36206;DHT22;22242;48.796;9.930;2023-07-20T14:05:05;24.90;58.90
36206;DHT22;22242;48.796;9.930;2023-07-20T14:07:32;24.90;57.50
36206;DHT22;22242;48.796;9.930;2023-07-20T14:09:59;25.50;58.90
36206;DHT22;22242;48.796;9.930;2023-07-20T14:12:28;25.50;56.10
36206;DHT22;22242;48.796;9.930;2023-07-20T14:14:55;25.40;56.90
36206;DHT22;22242;48.796;9.930;2023-07-20T14:17:23;25.10;57.20
36206;DHT22;22242;48.796;9.930;2023-07-20T14:19:52;24.90;58.00
36206;DHT22;22242;48.796;9.930;2023-07-20T14:22:20;24.90;57.60
36206;DHT22;22242;48.796;9.930;2023-07-20T14:24:47;24.70;58.70
36206;DHT22;22242;48.796;9.930;2023-07-20T14:27:14;24.10;56.60
36206;DHT22;22242;48.796;9.930;2023-07-20T14:29:42;24.60;60.70
36206;DHT22;22242;48.796;9.930;2023-07-20T14:32:10;25.00;58.60
36206;DHT22;22242;48.796;9.930;2023-07-20T14:34:37;25.00;58.50
36206;DHT22;22242;48.796;9.930;2023-07-20T14:37:05;25.10;59.20
36206;DHT22;22242;48.796;9.930;2023-07-20T14:39:32;25.50;58.80
36206;DHT22;22242;48.796;9.930;2023-07-20T14:42:00;25.30;56.50
36206;DHT22;22242;48.796;9.930;2023-07-20T14:44:29;24.70;57.20
36206;DHT22;22242;48.796;9.930;2023-07-20T14:46:58;24.60;58.70
36206;DHT22;22242;48.796;9.930;2023-07-20T14:49:25;24.70;58.10
36206;DHT22;22242;48.796;9.930;2023-07-20T14:51:53;24.80;57.50
36206;DHT22;22242;48.796;9.930;2023-07-20T14:54:20;25.00;57.20
36206;DHT22;22242;48.796;9.930;2023-07-20T14:56:51;25.10;57.80
36206;DHT22;22242;48.796;9.930;2023-07-20T14:59:19;25.00;57.10
36206;DHT22;22242;48.796;9.930;2023-07-20T15:01:46;24.80;55.60
36206;DHT22;22242;48.796;9.930;2023-07-20T15:04:15;24.60;56.80
36206;DHT22;22242;48.796;9.930;2023-07-20T15:06:42;24.70;57.30
36206;DHT22;22242;48.796;9.930;2023-07-20T15:09:09;25.00;59.20
36206;DHT22;22242;48.796;9.930;2023-07-20T15:11:36;24.90;56.00
36206;DHT22;22242;48.796;9.930;2023-07-20T15:14:04;24.90;57.10
36206;DHT22;22242;48.796;9.930;2023-07-20T15:16:31;24.70;57.00
36206;DHT22;22242;48.796;9.930;2023-07-20T15:18:58;24.50;58.30
36206;DHT22;22242;48.796;9.930;2023-07-20T15:21:26;24.10;58.30
36206;DHT22;22242;48.796;9.930;2023-07-20T15:23:56;23.80;59.60
36206;DHT22;22242;48.796;9.930;2023-07-20T15:26:23;23.70;59.50
36206;DHT22;22242;48.796;9.930;2023-07-20T15:28:51;23.70;60.10
36206;DHT22;22242;48.796;9.930;2023-07-20T15:31:18;24.00;59.80
36206;DHT22;22242;48.796;9.930;2023-07-20T15:33:45;24.10;57.80
36206;DHT22;22242;48.796;9.930;2023-07-20T15:36:12;24.20;57.70
36206;DHT22;22242;48.796;9.930;2023-07-20T15:38:40;24.20;58.30
36206;DHT22;22242;48.796;9.930;2023-07-20T15:41:07;23.80;57.80
36206;DHT22;22242;48.796;9.930;2023-07-20T15:43:34;23.90;57.80